sensor_id;sensor_type;location;lat;lon;timestamp;temperature;humidity
78896;HTU21D;68284;59.124;37.910;2023-08-24T00:01:51;12.91;68.85
78896;HTU21D;68284;59.124;37.910;2023-08-24T00:04:17;12.89;68.96
78896;HTU21D;68284;59.124;37.910;2023-08-24T00:06:44;12.82;69.17
78896;HTU21D;68284;59.124;37.910;2023-08-24T00:09:10;12.79;69.33
78896;HTU21D;68284;59.124;37.910;2023-08-24T00:11:37;12.73;69.61
78896;HTU21D;68284;59.124;37.910;2023-08-24T00:14:05;12.70;69.80
78896;HTU21D;68284;59.124;37.910;2023-08-24T00:16:32;12.75;69.65
78896;HTU21D;68284;59.124;37.910;2023-08-24T00:18:58;12.73;69.66
78896;HTU21D;68284;59.124;37.910;2023-08-24T00:21:25;12.72;69.76
78896;HTU21D;68284;59.124;37.910;2023-08-24T00:23:51;12.65;69.94
78896;HTU21D;68284;59.124;37.910;2023-08-24T00:26:18;12.59;70.13
78896;HTU21D;68284;59.124;37.910;2023-08-24T00:28:47;12.55;70.31
78896;HTU21D;68284;59.124;37.910;2023-08-24T00:31:18;12.53;70.43
78896;HTU21D;68284;59.124;37.910;2023-08-24T00:33:44;12.48;70.55
78896;HTU21D;68284;59.124;37.910;2023-08-24T00:36:11;12.44;70.80
78896;HTU21D;68284;59.124;37.910;2023-08-24T00:38:38;12.47;70.85
78896;HTU21D;68284;59.124;37.910;2023-08-24T00:41:05;12.52;70.95
78896;HTU21D;68284;59.124;37.910;2023-08-24T00:43:32;12.60;70.68
78896;HTU21D;68284;59.124;37.910;2023-08-24T00:46:01;12.66;70.58
78896;HTU21D;68284;59.124;37.910;2023-08-24T00:48:28;12.70;70.40
78896;HTU21D;68284;59.124;37.910;2023-08-24T00:50:57;12.71;70.30
78896;HTU21D;68284;59.124;37.910;2023-08-24T00:53:26;12.71;70.35
78896;HTU21D;68284;59.124;37.910;2023-08-24T00:55:54;12.76;70.23
78896;HTU21D;68284;59.124;37.910;2023-08-24T00:58:23;12.88;69.94
78896;HTU21D;68284;59.124;37.910;2023-08-24T01:00:51;13.02;69.48
78896;HTU21D;68284;59.124;37.910;2023-08-24T01:03:18;13.08;69.16
78896;HTU21D;68284;59.124;37.910;2023-08-24T01:05:46;13.06;69.29
78896;HTU21D;68284;59.124;37.910;2023-08-24T01:08:12;13.08;69.33
78896;HTU21D;68284;59.124;37.910;2023-08-24T01:11:02;13.10;69.13
78896;HTU21D;68284;59.124;37.910;2023-08-24T01:13:48;13.07;69.19
78896;HTU21D;68284;59.124;37.910;2023-08-24T01:16:20;13.01;69.31
78896;HTU21D;68284;59.124;37.910;2023-08-24T01:18:57;12.89;69.54
78896;HTU21D;68284;59.124;37.910;2023-08-24T01:21:26;12.77;69.85
78896;HTU21D;68284;59.124;37.910;2023-08-24T01:24:13;12.70;70.32
78896;HTU21D;68284;59.124;37.910;2023-08-24T01:26:41;12.61;70.39
78896;HTU21D;68284;59.124;37.910;2023-08-24T01:29:09;12.51;70.59
78896;HTU21D;68284;59.124;37.910;2023-08-24T01:31:36;12.45;70.79
78896;HTU21D;68284;59.124;37.910;2023-08-24T01:34:03;12.41;71.08
78896;HTU21D;68284;59.124;37.910;2023-08-24T01:36:31;12.41;71.22
78896;HTU21D;68284;59.124;37.910;2023-08-24T01:39:06;12.42;71.13
78896;HTU21D;68284;59.124;37.910;2023-08-24T01:41:36;12.41;71.28
78896;HTU21D;68284;59.124;37.910;2023-08-24T01:44:09;12.37;71.26
78896;HTU21D;68284;59.124;37.910;2023-08-24T01:46:39;12.31;71.43
78896;HTU21D;68284;59.124;37.910;2023-08-24T01:49:11;12.27;71.70
78896;HTU21D;68284;59.124;37.910;2023-08-24T01:51:38;12.23;71.74
78896;HTU21D;68284;59.124;37.910;2023-08-24T01:54:06;12.25;71.90
78896;HTU21D;68284;59.124;37.910;2023-08-24T01:56:33;12.27;71.84
78896;HTU21D;68284;59.124;37.910;2023-08-24T01:59:00;12.28;71.93
78896;HTU21D;68284;59.124;37.910;2023-08-24T02:01:26;12.35;71.91
78896;HTU21D;68284;59.124;37.910;2023-08-24T02:03:53;12.46;71.49
78896;HTU21D;68284;59.124;37.910;2023-08-24T02:06:20;12.44;71.45
78896;HTU21D;68284;59.124;37.910;2023-08-24T02:08:48;12.44;71.60
78896;HTU21D;68284;59.124;37.910;2023-08-24T02:11:14;12.45;71.59
78896;HTU21D;68284;59.124;37.910;2023-08-24T02:13:41;12.49;71.45
78896;HTU21D;68284;59.124;37.910;2023-08-24T02:16:08;12.48;71.40
78896;HTU21D;68284;59.124;37.910;2023-08-24T02:18:36;12.45;71.51
78896;HTU21D;68284;59.124;37.910;2023-08-24T02:21:08;12.48;71.54
78896;HTU21D;68284;59.124;37.910;2023-08-24T02:23:36;12.48;71.51
78896;HTU21D;68284;59.124;37.910;2023-08-24T02:26:03;12.51;71.56
78896;HTU21D;68284;59.124;37.910;2023-08-24T02:28:30;12.51;71.45
78896;HTU21D;68284;59.124;37.910;2023-08-24T02:31:01;12.51;71.48
78896;HTU21D;68284;59.124;37.910;2023-08-24T02:33:30;12.47;71.66
78896;HTU21D;68284;59.124;37.910;2023-08-24T02:35:57;12.55;71.66
78896;HTU21D;68284;59.124;37.910;2023-08-24T02:38:24;12.51;71.64
78896;HTU21D;68284;59.124;37.910;2023-08-24T02:41:07;12.40;72.01
78896;HTU21D;68284;59.124;37.910;2023-08-24T02:43:34;12.32;72.11
78896;HTU21D;68284;59.124;37.910;2023-08-24T02:46:02;12.26;72.22
78896;HTU21D;68284;59.124;37.910;2023-08-24T02:48:30;12.21;72.26
78896;HTU21D;68284;59.124;37.910;2023-08-24T02:50:58;12.15;72.56
78896;HTU21D;68284;59.124;37.910;2023-08-24T02:53:25;12.06;72.78
78896;HTU21D;68284;59.124;37.910;2023-08-24T02:55:53;11.99;73.06
78896;HTU21D;68284;59.124;37.910;2023-08-24T02:58:21;11.93;73.33
78896;HTU21D;68284;59.124;37.910;2023-08-24T03:00:50;11.86;73.54
78896;HTU21D;68284;59.124;37.910;2023-08-24T03:03:18;11.79;73.80
78896;HTU21D;68284;59.124;37.910;2023-08-24T03:05:59;11.75;74.22
78896;HTU21D;68284;59.124;37.910;2023-08-24T03:08:30;11.72;74.19
78896;HTU21D;68284;59.124;37.910;2023-08-24T03:10:58;11.73;74.35
78896;HTU21D;68284;59.124;37.910;2023-08-24T03:13:25;11.73;74.50
78896;HTU21D;68284;59.124;37.910;2023-08-24T03:15:53;11.77;74.59
78896;HTU21D;68284;59.124;37.910;2023-08-24T03:18:20;11.87;74.43
78896;HTU21D;68284;59.124;37.910;2023-08-24T03:20:48;11.97;74.38
78896;HTU21D;68284;59.124;37.910;2023-08-24T03:23:17;12.05;74.20
78896;HTU21D;68284;59.124;37.910;2023-08-24T03:25:44;12.13;74.14
78896;HTU21D;68284;59.124;37.910;2023-08-24T03:28:10;12.25;73.94
78896;HTU21D;68284;59.124;37.910;2023-08-24T03:30:38;12.40;73.47
78896;HTU21D;68284;59.124;37.910;2023-08-24T03:33:05;12.50;73.14
78896;HTU21D;68284;59.124;37.910;2023-08-24T03:35:32;12.57;73.07
78896;HTU21D;68284;59.124;37.910;2023-08-24T03:37:59;12.63;72.97
78896;HTU21D;68284;59.124;37.910;2023-08-24T03:40:27;12.66;72.97
78896;HTU21D;68284;59.124;37.910;2023-08-24T03:42:53;12.75;72.76
78896;HTU21D;68284;59.124;37.910;2023-08-24T03:45:20;12.80;72.54
78896;HTU21D;68284;59.124;37.910;2023-08-24T03:47:47;12.85;72.59
78896;HTU21D;68284;59.124;37.910;2023-08-24T03:50:14;12.90;72.62
78896;HTU21D;68284;59.124;37.910;2023-08-24T03:52:41;12.97;72.54
78896;HTU21D;68284;59.124;37.910;2023-08-24T03:55:08;13.05;72.48
78896;HTU21D;68284;59.124;37.910;2023-08-24T03:57:34;13.16;72.25
78896;HTU21D;68284;59.124;37.910;2023-08-24T04:00:02;13.21;72.18
78896;HTU21D;68284;59.124;37.910;2023-08-24T04:02:45;13.25;72.11
78896;HTU21D;68284;59.124;37.910;2023-08-24T04:05:24;13.35;71.91
78896;HTU21D;68284;59.124;37.910;2023-08-24T04:07:50;13.40;71.75
78896;HTU21D;68284;59.124;37.910;2023-08-24T04:10:17;13.51;71.60
78896;HTU21D;68284;59.124;37.910;2023-08-24T04:12:44;13.58;71.42
78896;HTU21D;68284;59.124;37.910;2023-08-24T04:15:10;13.64;71.19
78896;HTU21D;68284;59.124;37.910;2023-08-24T04:17:37;13.70;71.10
78896;HTU21D;68284;59.124;37.910;2023-08-24T04:20:03;13.74;70.93
78896;HTU21D;68284;59.124;37.910;2023-08-24T04:22:33;13.80;70.78
78896;HTU21D;68284;59.124;37.910;2023-08-24T04:25:00;13.86;70.54
78896;HTU21D;68284;59.124;37.910;2023-08-24T04:27:27;13.94;70.36
78896;HTU21D;68284;59.124;37.910;2023-08-24T04:29:55;13.97;70.16
78896;HTU21D;68284;59.124;37.910;2023-08-24T04:32:22;13.99;70.01
78896;HTU21D;68284;59.124;37.910;2023-08-24T04:34:49;13.99;70.07
78896;HTU21D;68284;59.124;37.910;2023-08-24T04:37:15;14.00;70.12
78896;HTU21D;68284;59.124;37.910;2023-08-24T04:39:41;14.07;70.10
78896;HTU21D;68284;59.124;37.910;2023-08-24T04:42:11;14.17;69.95
78896;HTU21D;68284;59.124;37.910;2023-08-24T04:44:37;14.23;69.84
78896;HTU21D;68284;59.124;37.910;2023-08-24T04:47:04;14.29;69.90
78896;HTU21D;68284;59.124;37.910;2023-08-24T04:49:30;14.37;69.77
78896;HTU21D;68284;59.124;37.910;2023-08-24T04:51:57;14.45;69.61
78896;HTU21D;68284;59.124;37.910;2023-08-24T04:54:23;14.52;69.46
78896;HTU21D;68284;59.124;37.910;2023-08-24T04:56:50;14.56;69.39
78896;HTU21D;68284;59.124;37.910;2023-08-24T04:59:17;14.62;69.23
78896;HTU21D;68284;59.124;37.910;2023-08-24T05:01:43;14.70;69.00
78896;HTU21D;68284;59.124;37.910;2023-08-24T05:04:09;14.80;68.76
78896;HTU21D;68284;59.124;37.910;2023-08-24T05:06:36;14.92;68.43
78896;HTU21D;68284;59.124;37.910;2023-08-24T05:09:02;15.03;68.19
78896;HTU21D;68284;59.124;37.910;2023-08-24T05:11:29;15.16;67.91
78896;HTU21D;68284;59.124;37.910;2023-08-24T05:13:57;15.30;67.52
78896;HTU21D;68284;59.124;37.910;2023-08-24T05:16:23;15.43;67.13
78896;HTU21D;68284;59.124;37.910;2023-08-24T05:18:50;15.57;66.70
78896;HTU21D;68284;59.124;37.910;2023-08-24T05:21:18;15.68;66.29
78896;HTU21D;68284;59.124;37.910;2023-08-24T05:23:44;15.80;65.83
78896;HTU21D;68284;59.124;37.910;2023-08-24T05:26:11;15.91;65.47
78896;HTU21D;68284;59.124;37.910;2023-08-24T05:28:37;16.02;65.23
78896;HTU21D;68284;59.124;37.910;2023-08-24T05:31:04;16.16;64.85
78896;HTU21D;68284;59.124;37.910;2023-08-24T05:33:30;16.30;64.45
78896;HTU21D;68284;59.124;37.910;2023-08-24T05:35:59;16.47;63.94
78896;HTU21D;68284;59.124;37.910;2023-08-24T05:38:25;16.62;63.39
78896;HTU21D;68284;59.124;37.910;2023-08-24T05:40:53;16.75;62.94
78896;HTU21D;68284;59.124;37.910;2023-08-24T05:43:19;16.88;62.47
78896;HTU21D;68284;59.124;37.910;2023-08-24T05:45:46;17.02;61.96
78896;HTU21D;68284;59.124;37.910;2023-08-24T05:48:16;17.14;61.57
78896;HTU21D;68284;59.124;37.910;2023-08-24T05:50:44;17.22;61.34
78896;HTU21D;68284;59.124;37.910;2023-08-24T05:53:11;17.30;60.96
78896;HTU21D;68284;59.124;37.910;2023-08-24T05:55:38;17.36;60.55
78896;HTU21D;68284;59.124;37.910;2023-08-24T05:58:06;17.44;60.12
78896;HTU21D;68284;59.124;37.910;2023-08-24T06:00:32;17.52;59.54
78896;HTU21D;68284;59.124;37.910;2023-08-24T06:03:00;17.63;59.32
78896;HTU21D;68284;59.124;37.910;2023-08-24T06:05:29;17.79;59.02
78896;HTU21D;68284;59.124;37.910;2023-08-24T06:07:56;17.95;58.60
78896;HTU21D;68284;59.124;37.910;2023-08-24T06:10:22;18.05;58.08
78896;HTU21D;68284;59.124;37.910;2023-08-24T06:12:50;18.09;57.74
78896;HTU21D;68284;59.124;37.910;2023-08-24T06:15:17;18.09;57.75
78896;HTU21D;68284;59.124;37.910;2023-08-24T06:17:45;18.12;57.73
78896;HTU21D;68284;59.124;37.910;2023-08-24T06:20:14;18.15;57.74
78896;HTU21D;68284;59.124;37.910;2023-08-24T06:22:41;18.18;57.71
78896;HTU21D;68284;59.124;37.910;2023-08-24T06:25:08;18.22;57.59
78896;HTU21D;68284;59.124;37.910;2023-08-24T06:27:35;18.22;57.25
78896;HTU21D;68284;59.124;37.910;2023-08-24T06:30:03;18.20;57.21
78896;HTU21D;68284;59.124;37.910;2023-08-24T06:32:29;18.24;57.19
78896;HTU21D;68284;59.124;37.910;2023-08-24T06:34:57;18.30;57.10
78896;HTU21D;68284;59.124;37.910;2023-08-24T06:37:26;18.37;56.84
78896;HTU21D;68284;59.124;37.910;2023-08-24T06:39:52;18.42;56.70
78896;HTU21D;68284;59.124;37.910;2023-08-24T06:42:19;18.47;56.48
78896;HTU21D;68284;59.124;37.910;2023-08-24T06:44:47;18.52;56.12
78896;HTU21D;68284;59.124;37.910;2023-08-24T06:47:16;18.51;55.71
78896;HTU21D;68284;59.124;37.910;2023-08-24T06:49:43;18.49;55.58
78896;HTU21D;68284;59.124;37.910;2023-08-24T06:52:09;18.49;55.50
78896;HTU21D;68284;59.124;37.910;2023-08-24T06:54:37;18.52;55.20
78896;HTU21D;68284;59.124;37.910;2023-08-24T06:57:07;18.56;55.16
78896;HTU21D;68284;59.124;37.910;2023-08-24T06:59:42;18.66;54.56
78896;HTU21D;68284;59.124;37.910;2023-08-24T07:02:10;18.70;54.50
78896;HTU21D;68284;59.124;37.910;2023-08-24T07:04:37;18.89;53.94
78896;HTU21D;68284;59.124;37.910;2023-08-24T07:07:07;19.05;53.46
78896;HTU21D;68284;59.124;37.910;2023-08-24T07:09:45;19.20;52.60
78896;HTU21D;68284;59.124;37.910;2023-08-24T07:12:12;19.33;52.22
78896;HTU21D;68284;59.124;37.910;2023-08-24T07:14:43;19.46;51.56
78896;HTU21D;68284;59.124;37.910;2023-08-24T07:17:09;19.68;50.96
78896;HTU21D;68284;59.124;37.910;2023-08-24T07:19:39;19.86;49.73
78896;HTU21D;68284;59.124;37.910;2023-08-24T07:22:09;19.94;49.26
78896;HTU21D;68284;59.124;37.910;2023-08-24T07:24:37;19.94;49.10
78896;HTU21D;68284;59.124;37.910;2023-08-24T07:27:13;19.91;49.40
78896;HTU21D;68284;59.124;37.910;2023-08-24T07:29:59;19.96;49.34
78896;HTU21D;68284;59.124;37.910;2023-08-24T07:32:27;20.01;49.19
78896;HTU21D;68284;59.124;37.910;2023-08-24T07:34:54;20.06;48.94
78896;HTU21D;68284;59.124;37.910;2023-08-24T07:37:24;20.13;48.62
78896;HTU21D;68284;59.124;37.910;2023-08-24T07:39:50;20.20;48.07
78896;HTU21D;68284;59.124;37.910;2023-08-24T07:42:20;20.29;47.12
78896;HTU21D;68284;59.124;37.910;2023-08-24T07:44:53;20.41;46.34
78896;HTU21D;68284;59.124;37.910;2023-08-24T07:47:20;20.56;46.00
78896;HTU21D;68284;59.124;37.910;2023-08-24T07:49:48;20.73;45.56
78896;HTU21D;68284;59.124;37.910;2023-08-24T07:52:53;20.86;44.80
78896;HTU21D;68284;59.124;37.910;2023-08-24T07:55:24;20.89;45.21
78896;HTU21D;68284;59.124;37.910;2023-08-24T07:58:00;20.94;45.15
78896;HTU21D;68284;59.124;37.910;2023-08-24T08:00:31;20.93;45.07
78896;HTU21D;68284;59.124;37.910;2023-08-24T08:02:59;20.83;44.70
78896;HTU21D;68284;59.124;37.910;2023-08-24T08:05:32;20.74;44.93
78896;HTU21D;68284;59.124;37.910;2023-08-24T08:08:39;20.68;45.53
78896;HTU21D;68284;59.124;37.910;2023-08-24T08:11:09;20.61;45.67
78896;HTU21D;68284;59.124;37.910;2023-08-24T08:13:43;20.54;45.51
78896;HTU21D;68284;59.124;37.910;2023-08-24T08:16:23;20.47;45.38
78896;HTU21D;68284;59.124;37.910;2023-08-24T08:18:53;20.42;45.25
78896;HTU21D;68284;59.124;37.910;2023-08-24T08:21:28;20.44;45.35
78896;HTU21D;68284;59.124;37.910;2023-08-24T08:24:04;20.51;45.11
78896;HTU21D;68284;59.124;37.910;2023-08-24T08:26:56;20.55;45.03
78896;HTU21D;68284;59.124;37.910;2023-08-24T08:29:24;20.55;44.75
78896;HTU21D;68284;59.124;37.910;2023-08-24T08:31:53;20.49;44.37
78896;HTU21D;68284;59.124;37.910;2023-08-24T08:34:24;20.44;44.38
78896;HTU21D;68284;59.124;37.910;2023-08-24T08:36:55;20.47;44.46
78896;HTU21D;68284;59.124;37.910;2023-08-24T08:39:32;20.58;44.54
78896;HTU21D;68284;59.124;37.910;2023-08-24T08:42:26;20.72;44.08
78896;HTU21D;68284;59.124;37.910;2023-08-24T08:45:10;20.79;44.13
78896;HTU21D;68284;59.124;37.910;2023-08-24T08:48:02;20.77;44.14
78896;HTU21D;68284;59.124;37.910;2023-08-24T08:50:32;20.75;43.81
78896;HTU21D;68284;59.124;37.910;2023-08-24T08:52:59;20.69;43.86
78896;HTU21D;68284;59.124;37.910;2023-08-24T08:55:25;20.54;44.27
78896;HTU21D;68284;59.124;37.910;2023-08-24T08:57:56;20.43;44.64
78896;HTU21D;68284;59.124;37.910;2023-08-24T09:00:25;20.34;44.80
78896;HTU21D;68284;59.124;37.910;2023-08-24T09:02:53;20.20;44.87
78896;HTU21D;68284;59.124;37.910;2023-08-24T09:05:21;20.09;45.08
78896;HTU21D;68284;59.124;37.910;2023-08-24T09:07:49;19.97;45.19
78896;HTU21D;68284;59.124;37.910;2023-08-24T09:10:15;19.85;45.27
78896;HTU21D;68284;59.124;37.910;2023-08-24T09:12:41;19.74;45.63
78896;HTU21D;68284;59.124;37.910;2023-08-24T09:15:08;19.72;46.01
78896;HTU21D;68284;59.124;37.910;2023-08-24T09:17:42;19.68;46.41
78896;HTU21D;68284;59.124;37.910;2023-08-24T09:20:11;19.66;46.48
78896;HTU21D;68284;59.124;37.910;2023-08-24T09:22:39;19.68;46.63
78896;HTU21D;68284;59.124;37.910;2023-08-24T09:25:09;19.75;46.58
78896;HTU21D;68284;59.124;37.910;2023-08-24T09:27:38;19.82;46.53
78896;HTU21D;68284;59.124;37.910;2023-08-24T09:30:10;19.87;46.40
78896;HTU21D;68284;59.124;37.910;2023-08-24T09:32:40;19.95;46.67
78896;HTU21D;68284;59.124;37.910;2023-08-24T09:35:09;20.01;46.18
78896;HTU21D;68284;59.124;37.910;2023-08-24T09:37:38;20.06;46.01
78896;HTU21D;68284;59.124;37.910;2023-08-24T09:40:11;20.10;45.73
78896;HTU21D;68284;59.124;37.910;2023-08-24T09:42:42;20.11;45.58
78896;HTU21D;68284;59.124;37.910;2023-08-24T09:45:13;20.11;45.63
78896;HTU21D;68284;59.124;37.910;2023-08-24T09:47:52;20.11;45.77
78896;HTU21D;68284;59.124;37.910;2023-08-24T09:50:25;20.11;45.90
78896;HTU21D;68284;59.124;37.910;2023-08-24T09:52:54;20.12;45.77
78896;HTU21D;68284;59.124;37.910;2023-08-24T09:55:40;20.11;45.70
78896;HTU21D;68284;59.124;37.910;2023-08-24T09:58:09;20.07;45.55
78896;HTU21D;68284;59.124;37.910;2023-08-24T10:00:37;20.06;45.43
78896;HTU21D;68284;59.124;37.910;2023-08-24T10:03:06;20.05;45.34
78896;HTU21D;68284;59.124;37.910;2023-08-24T10:05:36;20.03;45.22
78896;HTU21D;68284;59.124;37.910;2023-08-24T10:08:06;20.06;45.22
78896;HTU21D;68284;59.124;37.910;2023-08-24T10:10:36;20.11;45.12
78896;HTU21D;68284;59.124;37.910;2023-08-24T10:13:10;20.17;44.97
78896;HTU21D;68284;59.124;37.910;2023-08-24T10:15:41;20.26;44.97
78896;HTU21D;68284;59.124;37.910;2023-08-24T10:18:15;20.46;44.69
78896;HTU21D;68284;59.124;37.910;2023-08-24T10:20:43;20.74;44.11
78896;HTU21D;68284;59.124;37.910;2023-08-24T10:23:15;21.10;43.29
78896;HTU21D;68284;59.124;37.910;2023-08-24T10:25:52;21.54;42.33
78896;HTU21D;68284;59.124;37.910;2023-08-24T10:28:23;21.90;41.76
78896;HTU21D;68284;59.124;37.910;2023-08-24T10:30:58;22.21;41.36
78896;HTU21D;68284;59.124;37.910;2023-08-24T10:33:32;22.43;40.91
78896;HTU21D;68284;59.124;37.910;2023-08-24T10:36:07;22.60;40.55
78896;HTU21D;68284;59.124;37.910;2023-08-24T10:38:39;22.66;40.20
78896;HTU21D;68284;59.124;37.910;2023-08-24T10:41:07;22.68;40.76
78896;HTU21D;68284;59.124;37.910;2023-08-24T10:43:37;22.71;40.19
78896;HTU21D;68284;59.124;37.910;2023-08-24T10:49:42;22.42;41.13
78896;HTU21D;68284;59.124;37.910;2023-08-24T10:52:32;22.28;41.73
78896;HTU21D;68284;59.124;37.910;2023-08-24T10:55:03;21.96;42.99
78896;HTU21D;68284;59.124;37.910;2023-08-24T10:57:36;21.54;44.33
78896;HTU21D;68284;59.124;37.910;2023-08-24T11:00:11;21.28;45.35
78896;HTU21D;68284;59.124;37.910;2023-08-24T11:02:44;21.16;46.07
78896;HTU21D;68284;59.124;37.910;2023-08-24T11:05:25;21.16;46.41
78896;HTU21D;68284;59.124;37.910;2023-08-24T11:07:55;21.08;46.73
78896;HTU21D;68284;59.124;37.910;2023-08-24T11:10:25;21.06;46.96
78896;HTU21D;68284;59.124;37.910;2023-08-24T11:20:46;20.71;47.38
78896;HTU21D;68284;59.124;37.910;2023-08-24T11:23:14;20.60;47.60
78896;HTU21D;68284;59.124;37.910;2023-08-24T11:25:41;20.53;47.90
78896;HTU21D;68284;59.124;37.910;2023-08-24T11:28:07;20.58;48.22
78896;HTU21D;68284;59.124;37.910;2023-08-24T11:30:34;20.76;47.84
78896;HTU21D;68284;59.124;37.910;2023-08-24T11:33:02;20.95;47.66
78896;HTU21D;68284;59.124;37.910;2023-08-24T11:35:29;21.09;47.67
78896;HTU21D;68284;59.124;37.910;2023-08-24T11:37:56;21.27;47.50
78896;HTU21D;68284;59.124;37.910;2023-08-24T11:40:22;21.42;47.25
78896;HTU21D;68284;59.124;37.910;2023-08-24T11:42:56;21.48;47.12
78896;HTU21D;68284;59.124;37.910;2023-08-24T11:45:23;21.53;47.21
78896;HTU21D;68284;59.124;37.910;2023-08-24T11:47:50;21.52;47.34
78896;HTU21D;68284;59.124;37.910;2023-08-24T11:50:17;21.44;47.61
78896;HTU21D;68284;59.124;37.910;2023-08-24T11:52:44;21.38;47.76
78896;HTU21D;68284;59.124;37.910;2023-08-24T11:55:11;21.31;47.48
78896;HTU21D;68284;59.124;37.910;2023-08-24T11:57:38;21.27;47.07
78896;HTU21D;68284;59.124;37.910;2023-08-24T12:00:06;21.25;46.68
78896;HTU21D;68284;59.124;37.910;2023-08-24T12:02:34;21.24;46.29
78896;HTU21D;68284;59.124;37.910;2023-08-24T12:05:05;21.31;45.98
78896;HTU21D;68284;59.124;37.910;2023-08-24T12:07:31;21.38;45.69
78896;HTU21D;68284;59.124;37.910;2023-08-24T12:10:01;21.46;45.12
78896;HTU21D;68284;59.124;37.910;2023-08-24T12:12:28;21.54;44.59
78896;HTU21D;68284;59.124;37.910;2023-08-24T12:14:55;21.60;44.05
78896;HTU21D;68284;59.124;37.910;2023-08-24T12:17:23;21.67;43.51
78896;HTU21D;68284;59.124;37.910;2023-08-24T12:20:00;21.70;43.19
78896;HTU21D;68284;59.124;37.910;2023-08-24T12:22:30;21.69;42.75
78896;HTU21D;68284;59.124;37.910;2023-08-24T12:24:56;21.68;42.54
78896;HTU21D;68284;59.124;37.910;2023-08-24T12:27:24;21.66;42.36
78896;HTU21D;68284;59.124;37.910;2023-08-24T12:29:50;21.68;42.06
78896;HTU21D;68284;59.124;37.910;2023-08-24T12:32:18;21.69;41.61
78896;HTU21D;68284;59.124;37.910;2023-08-24T12:34:51;21.75;41.43
78896;HTU21D;68284;59.124;37.910;2023-08-24T12:37:23;21.81;41.23
78896;HTU21D;68284;59.124;37.910;2023-08-24T12:39:49;22.01;40.98
78896;HTU21D;68284;59.124;37.910;2023-08-24T12:42:15;22.76;39.97
78896;HTU21D;68284;59.124;37.910;2023-08-24T12:44:41;23.81;38.33
78896;HTU21D;68284;59.124;37.910;2023-08-24T12:47:09;24.61;36.84
78896;HTU21D;68284;59.124;37.910;2023-08-24T12:49:35;25.02;35.54
78896;HTU21D;68284;59.124;37.910;2023-08-24T12:52:01;25.47;34.93
78896;HTU21D;68284;59.124;37.910;2023-08-24T12:54:28;25.61;35.20
78896;HTU21D;68284;59.124;37.910;2023-08-24T12:56:54;25.56;34.76
78896;HTU21D;68284;59.124;37.910;2023-08-24T12:59:20;25.29;35.21
78896;HTU21D;68284;59.124;37.910;2023-08-24T13:01:47;24.89;35.51
78896;HTU21D;68284;59.124;37.910;2023-08-24T13:04:14;24.53;36.32
78896;HTU21D;68284;59.124;37.910;2023-08-24T13:06:40;24.26;36.78
78896;HTU21D;68284;59.124;37.910;2023-08-24T13:09:06;24.08;36.93
78896;HTU21D;68284;59.124;37.910;2023-08-24T13:11:33;23.82;37.28
78896;HTU21D;68284;59.124;37.910;2023-08-24T13:13:59;23.54;37.78
78896;HTU21D;68284;59.124;37.910;2023-08-24T13:16:26;23.34;38.17
78896;HTU21D;68284;59.124;37.910;2023-08-24T13:18:53;23.14;38.40
78896;HTU21D;68284;59.124;37.910;2023-08-24T13:21:20;22.97;38.41
78896;HTU21D;68284;59.124;37.910;2023-08-24T13:23:46;22.82;38.14
78896;HTU21D;68284;59.124;37.910;2023-08-24T13:26:20;22.69;38.47
78896;HTU21D;68284;59.124;37.910;2023-08-24T13:28:47;22.55;38.53
78896;HTU21D;68284;59.124;37.910;2023-08-24T13:31:14;22.44;38.45
78896;HTU21D;68284;59.124;37.910;2023-08-24T13:33:40;22.36;39.32
78896;HTU21D;68284;59.124;37.910;2023-08-24T13:36:07;22.38;39.75
78896;HTU21D;68284;59.124;37.910;2023-08-24T13:38:33;22.28;39.37
78896;HTU21D;68284;59.124;37.910;2023-08-24T13:40:59;22.18;39.63
78896;HTU21D;68284;59.124;37.910;2023-08-24T13:43:26;22.05;40.20
78896;HTU21D;68284;59.124;37.910;2023-08-24T13:45:52;21.85;40.19
78896;HTU21D;68284;59.124;37.910;2023-08-24T13:48:19;21.64;40.08
78896;HTU21D;68284;59.124;37.910;2023-08-24T13:50:52;21.47;40.10
78896;HTU21D;68284;59.124;37.910;2023-08-24T13:53:18;21.37;42.76
78896;HTU21D;68284;59.124;37.910;2023-08-24T13:55:45;21.36;42.54
78896;HTU21D;68284;59.124;37.910;2023-08-24T13:58:11;21.32;41.49
78896;HTU21D;68284;59.124;37.910;2023-08-24T14:00:39;21.23;43.32
78896;HTU21D;68284;59.124;37.910;2023-08-24T14:03:05;21.17;41.97
78896;HTU21D;68284;59.124;37.910;2023-08-24T14:05:31;21.05;41.49
78896;HTU21D;68284;59.124;37.910;2023-08-24T14:07:57;20.93;41.39
78896;HTU21D;68284;59.124;37.910;2023-08-24T14:10:24;20.79;41.57
78896;HTU21D;68284;59.124;37.910;2023-08-24T14:12:51;20.66;41.78
78896;HTU21D;68284;59.124;37.910;2023-08-24T14:15:17;20.61;42.28
78896;HTU21D;68284;59.124;37.910;2023-08-24T14:17:44;20.56;42.39
78896;HTU21D;68284;59.124;37.910;2023-08-24T14:20:10;20.51;42.42
78896;HTU21D;68284;59.124;37.910;2023-08-24T14:22:39;20.50;42.27
78896;HTU21D;68284;59.124;37.910;2023-08-24T14:25:05;20.55;42.12
78896;HTU21D;68284;59.124;37.910;2023-08-24T14:27:32;20.61;42.43
78896;HTU21D;68284;59.124;37.910;2023-08-24T14:29:59;20.70;42.46
78896;HTU21D;68284;59.124;37.910;2023-08-24T14:32:25;21.04;42.32
78896;HTU21D;68284;59.124;37.910;2023-08-24T14:34:51;21.84;41.35
78896;HTU21D;68284;59.124;37.910;2023-08-24T14:37:17;22.95;39.28
78896;HTU21D;68284;59.124;37.910;2023-08-24T14:39:45;24.09;37.73
78896;HTU21D;68284;59.124;37.910;2023-08-24T14:42:11;25.13;36.22
78896;HTU21D;68284;59.124;37.910;2023-08-24T14:44:38;26.10;34.49
78896;HTU21D;68284;59.124;37.910;2023-08-24T14:47:04;26.97;33.07
78896;HTU21D;68284;59.124;37.910;2023-08-24T14:49:31;27.59;31.67
78896;HTU21D;68284;59.124;37.910;2023-08-24T14:51:58;27.93;30.77
78896;HTU21D;68284;59.124;37.910;2023-08-24T14:54:24;28.18;29.98
78896;HTU21D;68284;59.124;37.910;2023-08-24T14:56:51;28.52;29.77
78896;HTU21D;68284;59.124;37.910;2023-08-24T14:59:17;29.06;28.68
78896;HTU21D;68284;59.124;37.910;2023-08-24T15:01:43;29.70;27.39
78896;HTU21D;68284;59.124;37.910;2023-08-24T15:04:10;30.30;26.70
78896;HTU21D;68284;59.124;37.910;2023-08-24T15:06:37;30.81;26.07
78896;HTU21D;68284;59.124;37.910;2023-08-24T15:09:03;31.22;25.29
78896;HTU21D;68284;59.124;37.910;2023-08-24T15:11:29;31.49;24.82
78896;HTU21D;68284;59.124;37.910;2023-08-24T15:13:56;31.71;24.59
78896;HTU21D;68284;59.124;37.910;2023-08-24T15:16:22;31.81;24.35
78896;HTU21D;68284;59.124;37.910;2023-08-24T15:18:50;31.40;24.62
78896;HTU21D;68284;59.124;37.910;2023-08-24T15:21:16;30.49;25.45
78896;HTU21D;68284;59.124;37.910;2023-08-24T15:23:44;29.82;26.06
78896;HTU21D;68284;59.124;37.910;2023-08-24T15:26:13;29.08;26.77